Time;durP1;ratioP1;P1;durP2;ratioP2;P2;SDS_P1;SDS_P2;PMS_P1;PMS_P2;Temp;Humidity;BMP_temperature;BMP_pressure;BME280_temperature;BME280_humidity;BME280_pressure;Samples;Min_cycle;Max_cycle;Signal;HPM_P1;HPM_P2
2023/12/19 00:01:36;;;;;;;558.63;275.45;;;-0.20;99.90;;;;;;5078904;28;20020;-54
2023/12/19 00:04:03;;;;;;;558.53;272.05;;;-0.10;99.90;;;;;;5079048;28;20036;-54
2023/12/19 00:06:29;;;;;;;574.38;293.02;;;0.00;99.90;;;;;;5078979;28;20028;-54
2023/12/19 00:08:55;;;;;;;576.95;292.80;;;-0.10;99.90;;;;;;5078717;28;20037;-54
2023/12/19 00:11:21;;;;;;;616.75;309.27;;;0.00;99.90;;;;;;5078930;28;20461;-54
2023/12/19 00:13:47;;;;;;;549.55;271.90;;;0.00;99.90;;;;;;5078773;28;20031;-54
2023/12/19 00:16:13;;;;;;;554.55;272.40;;;0.00;99.90;;;;;;5078510;28;20024;-54
2023/12/19 00:18:39;;;;;;;539.05;261.67;;;-0.10;99.90;;;;;;5078788;28;20027;-54
2023/12/19 00:21:05;;;;;;;529.22;261.50;;;-0.20;99.90;;;;;;5078720;28;20035;-54
2023/12/19 00:23:31;;;;;;;547.53;270.73;;;-0.20;99.90;;;;;;5078339;28;20028;-54
2023/12/19 00:25:58;;;;;;;568.40;271.27;;;-0.30;99.90;;;;;;5078715;28;20052;-54
2023/12/19 00:28:24;;;;;;;679.85;329.98;;;-0.30;99.90;;;;;;5078492;28;20424;-54
2023/12/19 00:30:50;;;;;;;723.15;353.63;;;-0.30;99.90;;;;;;5078274;28;20033;-54
2023/12/19 00:33:16;;;;;;;582.85;271.17;;;-0.40;99.90;;;;;;5078457;28;20032;-54
2023/12/19 00:35:42;;;;;;;594.58;283.98;;;-0.30;99.90;;;;;;5078366;28;20036;-54
2023/12/19 00:38:08;;;;;;;560.70;260.33;;;-0.30;99.90;;;;;;5078043;28;20394;-54
2023/12/19 00:40:34;;;;;;;581.20;265.15;;;-0.30;99.90;;;;;;5078374;28;20025;-54
2023/12/19 00:42:59;;;;;;;567.50;265.52;;;-0.20;99.90;;;;;;5078182;28;20029;-54
2023/12/19 00:45:25;;;;;;;562.53;267.10;;;-0.10;99.90;;;;;;5078045;28;20028;-54
2023/12/19 00:47:51;;;;;;;501.42;227.60;;;-0.20;99.90;;;;;;5077955;28;20036;-54
2023/12/19 00:50:18;;;;;;;482.55;220.32;;;-0.20;99.90;;;;;;5078224;28;20033;-54
2023/12/19 00:52:44;;;;;;;475.85;208.90;;;-0.30;99.90;;;;;;5077730;28;20032;-54
2023/12/19 00:55:10;;;;;;;444.83;200.75;;;-0.30;99.90;;;;;;5078248;28;20082;-54
2023/12/19 00:57:36;;;;;;;469.88;212.50;;;-0.40;99.90;;;;;;5078016;28;20039;-54
2023/12/19 01:00:02;;;;;;;463.88;209.77;;;-0.50;99.90;;;;;;5077513;28;20025;-54
2023/12/19 01:02:31;;;;;;;441.10;203.38;;;-0.50;99.90;;;;;;5078186;28;20024;-54
2023/12/19 01:04:57;;;;;;;473.00;219.20;;;-0.50;99.90;;;;;;5077865;28;20135;-54
2023/12/19 01:07:26;;;;;;;427.02;194.45;;;-0.50;99.90;;;;;;5077680;28;20101;-54
2023/12/19 01:09:52;;;;;;;438.40;198.82;;;-0.50;99.90;;;;;;5077813;28;20032;-54
2023/12/19 01:12:18;;;;;;;417.20;193.88;;;-0.50;99.90;;;;;;5077652;28;20031;-54
2023/12/19 01:14:45;;;;;;;429.10;201.43;;;-0.50;99.90;;;;;;5077501;28;20028;-54
2023/12/19 01:17:11;;;;;;;435.38;198.02;;;-0.50;99.90;;;;;;5077685;28;20037;-54
2023/12/19 01:19:37;;;;;;;441.13;204.65;;;-0.50;99.90;;;;;;5077615;28;20025;-54
2023/12/19 01:22:04;;;;;;;442.17;202.23;;;-0.60;99.90;;;;;;5077426;28;20020;-54
2023/12/19 01:24:30;;;;;;;421.33;189.63;;;-0.60;99.90;;;;;;5077471;28;20032;-54
2023/12/19 01:26:56;;;;;;;412.65;189.20;;;-0.60;99.90;;;;;;5077306;28;20459;-54
2023/12/19 01:29:22;;;;;;;374.23;171.90;;;-0.70;99.90;;;;;;5077349;28;20039;-54
2023/12/19 01:31:49;;;;;;;415.30;186.00;;;-0.80;99.90;;;;;;5077390;28;20032;-54
2023/12/19 01:34:15;;;;;;;472.55;206.18;;;-0.80;99.90;;;;;;5077275;28;20385;-54
2023/12/19 01:36:41;;;;;;;432.30;188.50;;;-0.70;99.90;;;;;;5076995;28;20039;-54
2023/12/19 01:39:08;;;;;;;491.15;205.88;;;-0.70;99.90;;;;;;5077450;28;20043;-54
2023/12/19 01:41:34;;;;;;;463.42;198.60;;;-0.80;99.90;;;;;;5077146;28;20020;-54
2023/12/19 01:44:01;;;;;;;412.52;180.98;;;-0.80;99.90;;;;;;5076871;28;20494;-54
2023/12/19 01:46:27;;;;;;;461.77;208.88;;;-0.80;99.90;;;;;;5077058;28;20043;-54
2023/12/19 01:48:54;;;;;;;416.00;182.55;;;-0.80;99.90;;;;;;5076977;28;20036;-54
2023/12/19 01:51:20;;;;;;;521.25;224.57;;;-0.80;99.90;;;;;;5077197;28;20074;-54
2023/12/19 01:53:48;;;;;;;511.02;221.88;;;-0.70;99.90;;;;;;5076798;28;20062;-54
2023/12/19 01:56:19;;;;;;;443.48;204.68;;;-0.70;99.90;;;;;;5076912;28;20490;-54
2023/12/19 01:58:46;;;;;;;499.23;237.50;;;-0.70;99.90;;;;;;5076713;28;20029;-54
2023/12/19 02:01:13;;;;;;;432.73;199.35;;;-0.80;99.90;;;;;;5076686;28;20028;-54
2023/12/19 02:03:41;;;;;;;458.55;209.55;;;-0.80;99.90;;;;;;5076717;28;20035;-54
2023/12/19 02:06:08;;;;;;;420.10;194.90;;;-0.80;99.90;;;;;;5076433;28;20132;-54
2023/12/19 02:08:34;;;;;;;465.63;217.40;;;-0.80;99.90;;;;;;5076589;28;20048;-54
2023/12/19 02:11:00;;;;;;;431.27;199.13;;;-0.80;99.90;;;;;;5075887;28;20021;-54
2023/12/19 02:13:27;;;;;;;409.00;189.10;;;-0.90;99.90;;;;;;5076346;28;20359;-54
2023/12/19 02:15:53;;;;;;;389.77;178.25;;;-0.90;99.90;;;;;;5076693;28;20028;-54
2023/12/19 02:18:20;;;;;;;468.73;196.13;;;-0.80;99.90;;;;;;5076388;28;20101;-54
2023/12/19 02:20:46;;;;;;;481.00;199.55;;;-0.80;99.90;;;;;;5076213;28;20032;-54
2023/12/19 02:23:15;;;;;;;518.17;216.93;;;-0.70;99.90;;;;;;5076224;28;20025;-54
2023/12/19 02:25:42;;;;;;;496.15;202.75;;;-0.70;99.90;;;;;;5076414;28;20029;-54
2023/12/19 02:28:08;;;;;;;516.00;212.55;;;-0.70;99.90;;;;;;5075793;28;20486;-54
2023/12/19 02:30:35;;;;;;;504.17;211.60;;;-0.70;99.90;;;;;;5076242;28;20489;-54
2023/12/19 02:33:01;;;;;;;482.65;198.73;;;-0.80;99.90;;;;;;5076117;28;20580;-54
2023/12/19 02:35:28;;;;;;;463.63;193.25;;;-0.80;99.90;;;;;;5075914;28;20052;-54
2023/12/19 02:37:54;;;;;;;456.08;184.88;;;-0.80;99.90;;;;;;5075943;28;20370;-54
2023/12/19 02:40:21;;;;;;;467.73;194.25;;;-0.70;99.90;;;;;;5076079;28;20025;-54
2023/12/19 02:42:47;;;;;;;453.85;193.65;;;-0.80;99.90;;;;;;5075734;28;20086;-54
2023/12/19 02:45:13;;;;;;;443.50;187.10;;;-0.90;99.90;;;;;;5073375;28;20036;-54
2023/12/19 02:47:39;;;;;;;437.45;189.63;;;-0.90;99.90;;;;;;5075787;28;20033;-54
2023/12/19 02:50:06;;;;;;;425.38;182.75;;;-1.00;99.90;;;;;;5075596;28;20051;-54
2023/12/19 02:52:32;;;;;;;449.95;190.38;;;-1.00;99.90;;;;;;5075781;28;20090;-54
2023/12/19 02:54:58;;;;;;;446.58;189.68;;;-1.10;99.90;;;;;;5075573;28;20017;-54
2023/12/19 02:57:24;;;;;;;449.25;188.80;;;-1.20;99.90;;;;;;5075320;28;20047;-54
2023/12/19 02:59:49;;;;;;;440.52;186.95;;;-1.10;99.90;;;;;;5075770;28;20106;-54
2023/12/19 03:02:16;;;;;;;396.58;179.70;;;-1.10;99.90;;;;;;5075567;28;20033;-54
2023/12/19 03:04:42;;;;;;;372.20;165.95;;;-1.10;99.90;;;;;;5075499;28;20020;-54
2023/12/19 03:07:10;;;;;;;371.90;166.23;;;-1.10;99.90;;;;;;5075284;28;20111;-54
2023/12/19 03:09:36;;;;;;;410.63;172.45;;;-1.20;99.90;;;;;;5075911;28;20032;-54
2023/12/19 03:12:04;;;;;;;385.40;165.93;;;-1.30;99.90;;;;;;5075223;28;20115;-54
2023/12/19 03:14:31;;;;;;;410.63;175.00;;;-1.30;99.90;;;;;;5075729;28;20023;-54
2023/12/19 03:16:57;;;;;;;403.67;175.05;;;-1.30;99.90;;;;;;5075365;28;20024;-54
2023/12/19 03:19:23;;;;;;;390.17;168.10;;;-1.20;99.90;;;;;;5075588;28;20058;-54
2023/12/19 03:21:49;;;;;;;396.40;166.38;;;-1.10;99.90;;;;;;5075230;28;20066;-54
2023/12/19 03:24:15;;;;;;;408.85;174.30;;;-1.10;99.90;;;;;;5074381;28;20039;-54
2023/12/19 03:26:40;;;;;;;402.48;174.27;;;-1.10;99.90;;;;;;5075544;28;20033;-54
2023/12/19 03:29:06;;;;;;;393.77;172.18;;;-1.20;99.90;;;;;;5075164;28;20039;-54
2023/12/19 03:31:32;;;;;;;357.95;155.88;;;-1.10;99.90;;;;;;5075295;28;20056;-54
2023/12/19 03:33:58;;;;;;;366.00;159.57;;;-1.10;99.90;;;;;;5075267;28;20063;-54
2023/12/19 03:36:24;;;;;;;357.30;156.88;;;-1.20;99.90;;;;;;5074774;28;20505;-54
2023/12/19 03:38:50;;;;;;;378.60;167.85;;;-1.20;99.90;;;;;;5075394;28;20037;-54
2023/12/19 03:41:15;;;;;;;343.38;148.93;;;-1.20;99.90;;;;;;5075240;28;20020;-54
2023/12/19 03:43:41;;;;;;;362.23;158.60;;;-1.20;99.90;;;;;;5075107;28;20466;-54
2023/12/19 03:46:07;;;;;;;360.00;156.48;;;-1.10;99.90;;;;;;5075153;28;20039;-54
2023/12/19 03:48:36;;;;;;;362.17;159.98;;;-1.20;99.90;;;;;;5075122;28;20470;-54
2023/12/19 03:51:03;;;;;;;355.02;159.52;;;-1.30;99.90;;;;;;5074890;28;20033;-54
2023/12/19 03:53:29;;;;;;;330.67;145.90;;;-1.30;99.90;;;;;;5075231;28;20425;-54
2023/12/19 03:55:55;;;;;;;309.55;139.63;;;-1.40;99.90;;;;;;5074984;28;20036;-54
2023/12/19 03:58:21;;;;;;;361.25;153.77;;;-1.30;99.90;;;;;;5074839;28;20026;-54
2023/12/19 04:00:48;;;;;;;348.65;155.55;;;-1.30;99.90;;;;;;5075243;28;20108;-54
2023/12/19 04:03:14;;;;;;;360.27;161.80;;;-1.30;99.90;;;;;;5075064;28;20035;-54
2023/12/19 04:05:40;;;;;;;333.77;153.32;;;-1.30;99.90;;;;;;5075015;28;20039;-54
2023/12/19 04:08:06;;;;;;;312.27;144.70;;;-1.40;99.90;;;;;;5074920;28;20037;-54
2023/12/19 04:10:32;;;;;;;287.33;133.48;;;-1.30;99.90;;;;;;5075236;28;20066;-54
2023/12/19 04:12:58;;;;;;;283.70;131.27;;;-1.20;99.90;;;;;;5074625;28;20060;-54
2023/12/19 04:15:24;;;;;;;299.23;140.98;;;-1.20;99.90;;;;;;5074941;28;20025;-54
2023/12/19 04:17:50;;;;;;;283.35;134.70;;;-1.40;99.90;;;;;;5074936;28;20059;-54
2023/12/19 04:20:16;;;;;;;286.95;138.18;;;-1.40;99.90;;;;;;5074750;28;20024;-54
2023/12/19 04:22:42;;;;;;;294.83;141.15;;;-1.40;99.90;;;;;;5074822;28;20031;-54
2023/12/19 04:25:08;;;;;;;285.05;135.40;;;-1.40;99.90;;;;;;5074737;28;20047;-54
2023/12/19 04:27:34;;;;;;;285.60;134.07;;;-1.40;99.90;;;;;;5074617;28;20078;-54
2023/12/19 04:30:00;;;;;;;272.00;124.72;;;-1.40;99.90;;;;;;5074758;28;20032;-54
2023/12/19 04:32:26;;;;;;;260.65;121.13;;;-1.50;99.90;;;;;;5074749;28;20074;-54
2023/12/19 04:34:52;;;;;;;266.40;124.07;;;-1.50;99.90;;;;;;5076343;28;20044;-54
2023/12/19 04:37:18;;;;;;;262.25;125.82;;;-1.50;99.90;;;;;;5078071;28;20536;-54
2023/12/19 04:39:44;;;;;;;270.30;130.55;;;-1.50;99.90;;;;;;5078413;28;20524;-54
2023/12/19 04:42:17;;;;;;;273.40;128.27;;;-1.50;99.90;;;;;;5078025;28;20049;-54
2023/12/19 04:44:44;;;;;;;263.95;127.05;;;-1.50;99.90;;;;;;5078107;28;20032;-54
2023/12/19 04:47:10;;;;;;;255.35;121.20;;;-1.40;99.90;;;;;;5078169;28;20021;-54
2023/12/19 04:49:37;;;;;;;261.13;118.28;;;-1.30;99.90;;;;;;5078228;28;20029;-54
2023/12/19 04:52:04;;;;;;;259.13;122.80;;;-1.30;99.90;;;;;;5077901;28;20158;-54
2023/12/19 04:54:30;;;;;;;261.95;125.72;;;-1.50;99.90;;;;;;5077765;28;20032;-54
2023/12/19 04:56:56;;;;;;;248.55;117.30;;;-1.60;99.90;;;;;;5077760;28;20425;-54
2023/12/19 04:59:22;;;;;;;270.00;125.03;;;-1.60;99.90;;;;;;5078119;28;20024;-54
2023/12/19 05:01:48;;;;;;;261.58;124.72;;;-1.50;99.90;;;;;;5077569;28;20029;-54
2023/12/19 05:04:14;;;;;;;255.63;123.97;;;-1.50;99.90;;;;;;5077823;28;20029;-54
2023/12/19 05:06:39;;;;;;;246.32;115.65;;;-1.50;99.90;;;;;;5077887;28;20066;-54
2023/12/19 05:09:05;;;;;;;257.58;118.53;;;-1.50;99.90;;;;;;5077788;28;20048;-54
2023/12/19 05:11:31;;;;;;;253.38;118.22;;;-1.60;99.90;;;;;;5077469;28;20108;-54
2023/12/19 05:13:57;;;;;;;252.38;120.97;;;-1.50;99.90;;;;;;5077683;28;20051;-54
2023/12/19 05:16:23;;;;;;;245.68;116.00;;;-1.50;99.90;;;;;;5077672;28;20028;-54
2023/12/19 05:18:49;;;;;;;237.80;114.22;;;-1.50;99.90;;;;;;5077495;28;20462;-54
2023/12/19 05:21:15;;;;;;;255.23;116.68;;;-1.40;99.90;;;;;;5077649;28;20027;-54
2023/12/19 05:23:41;;;;;;;263.98;125.50;;;-1.40;99.90;;;;;;5077297;28;20051;-54
2023/12/19 05:26:08;;;;;;;268.08;125.38;;;-1.50;99.90;;;;;;5076993;28;20045;-54
2023/12/19 05:28:35;;;;;;;277.35;131.65;;;-1.50;99.90;;;;;;5077428;28;20420;-54
2023/12/19 05:31:02;;;;;;;278.08;134.85;;;-1.50;99.90;;;;;;5077320;28;20425;-54
2023/12/19 05:33:29;;;;;;;304.83;142.45;;;-1.50;99.90;;;;;;5077180;28;20036;-54
2023/12/19 05:35:54;;;;;;;299.55;140.63;;;-1.50;99.90;;;;;;5077554;28;20017;-55
2023/12/19 05:38:21;;;;;;;296.40;139.10;;;-1.50;99.90;;;;;;5077094;28;20036;-54
2023/12/19 05:40:48;;;;;;;314.45;143.20;;;-1.60;99.90;;;;;;5076926;28;20380;-54
2023/12/19 05:43:14;;;;;;;255.65;120.20;;;-1.50;99.90;;;;;;5077413;28;20036;-54
2023/12/19 05:45:40;;;;;;;244.90;117.65;;;-1.50;99.90;;;;;;5076246;28;20571;-54
2023/12/19 05:48:07;;;;;;;241.02;114.55;;;-1.40;99.90;;;;;;5076692;28;20163;-54
2023/12/19 05:50:33;;;;;;;238.77;117.43;;;-1.40;99.90;;;;;;5077031;28;20443;-54
2023/12/19 05:52:59;;;;;;;234.70;111.55;;;-1.40;99.90;;;;;;5076914;28;20457;-54
2023/12/19 05:55:25;;;;;;;269.50;132.27;;;-1.50;99.90;;;;;;5076525;28;20265;-54
2023/12/19 05:57:51;;;;;;;268.63;126.05;;;-1.50;99.90;;;;;;5076937;28;20024;-54
2023/12/19 06:00:17;;;;;;;253.40;119.35;;;-1.60;99.90;;;;;;5076802;28;20040;-54
2023/12/19 06:02:44;;;;;;;238.82;118.75;;;-1.50;99.90;;;;;;5076462;28;20485;-54
2023/12/19 06:05:11;;;;;;;234.60;114.57;;;-1.60;99.90;;;;;;5076797;28;20029;-54
2023/12/19 06:07:37;;;;;;;269.90;128.95;;;-1.60;99.90;;;;;;5076601;28;20033;-54
2023/12/19 06:10:08;;;;;;;270.98;129.18;;;-1.60;99.90;;;;;;5076167;28;20054;-54
2023/12/19 06:12:34;;;;;;;267.60;129.93;;;-1.70;99.90;;;;;;5076448;28;20111;-54
2023/12/19 06:15:02;;;;;;;250.30;116.40;;;-1.60;99.90;;;;;;5076559;28;20484;-54
2023/12/19 06:17:29;;;;;;;250.05;119.10;;;-1.50;99.90;;;;;;5091422;28;20032;-54
2023/12/19 06:19:55;;;;;;;268.90;127.28;;;-1.50;99.90;;;;;;5089173;28;20449;-54
2023/12/19 06:22:21;;;;;;;259.20;124.30;;;-1.40;99.90;;;;;;5092766;28;20035;-54
2023/12/19 06:24:46;;;;;;;254.25;116.82;;;-1.40;99.90;;;;;;5072082;28;20028;-54
2023/12/19 06:27:15;;;;;;;250.25;111.93;;;-1.50;99.90;;;;;;5075142;28;20036;-54
2023/12/19 06:29:42;;;;;;;257.05;115.10;;;-1.50;99.90;;;;;;5074784;28;20048;-54
2023/12/19 06:32:11;;;;;;;248.98;116.10;;;-1.60;99.90;;;;;;5075107;28;20028;-54
2023/12/19 06:34:37;;;;;;;247.38;113.82;;;-1.60;99.90;;;;;;5075357;28;20050;-54
2023/12/19 06:37:03;;;;;;;239.73;117.05;;;-1.60;99.90;;;;;;5075396;28;20036;-54
2023/12/19 06:39:29;;;;;;;232.85;112.35;;;-1.70;99.90;;;;;;5075510;28;20033;-54
2023/12/19 06:41:55;;;;;;;226.95;106.57;;;-1.70;99.90;;;;;;5074499;28;20033;-54
2023/12/19 06:44:22;;;;;;;224.13;111.45;;;-1.60;99.90;;;;;;5063012;28;20517;-54
2023/12/19 06:46:50;;;;;;;224.82;110.35;;;-1.60;99.90;;;;;;5072475;28;20288;-54
2023/12/19 06:49:19;;;;;;;245.40;114.20;;;-1.70;99.90;;;;;;5075514;28;20040;-54
2023/12/19 06:51:45;;;;;;;233.70;112.47;;;-1.70;99.90;;;;;;5070338;27;20115;-54
2023/12/19 06:54:11;;;;;;;256.58;119.50;;;-1.60;99.90;;;;;;5068236;28;20051;-54
2023/12/19 06:56:37;;;;;;;253.85;116.32;;;-1.60;99.90;;;;;;5074396;28;20045;-54
2023/12/19 06:59:05;;;;;;;250.38;116.20;;;-1.50;99.90;;;;;;5062516;28;20494;-54
2023/12/19 07:01:32;;;;;;;302.42;141.00;;;-1.40;99.90;;;;;;5063785;28;20036;-54
2023/12/19 07:03:58;;;;;;;258.90;124.30;;;-1.40;99.90;;;;;;5069880;27;20040;-54
2023/12/19 07:06:25;;;;;;;263.73;125.22;;;-1.30;99.90;;;;;;5065026;28;20083;-54
2023/12/19 07:08:51;;;;;;;262.88;121.22;;;-1.20;99.90;;;;;;5074770;28;20024;-54
2023/12/19 07:11:17;;;;;;;254.20;116.95;;;-1.10;99.90;;;;;;5049815;28;20024;-54
2023/12/19 07:13:44;;;;;;;273.77;124.95;;;-0.90;99.90;;;;;;5067707;28;20040;-54
2023/12/19 07:16:17;;;;;;;314.73;145.80;;;-0.90;99.90;;;;;;5062712;28;20360;-54
2023/12/19 07:18:44;;;;;;;302.77;145.77;;;-0.70;99.90;;;;;;5066733;28;20036;-54
2023/12/19 07:21:23;;;;;;;309.27;149.07;;;-0.50;99.90;;;;;;5060080;28;20036;-54
2023/12/19 07:23:51;;;;;;;307.00;146.10;;;-0.10;99.90;;;;;;5073450;28;20043;-54
2023/12/19 07:26:23;;;;;;;378.10;168.98;;;0.70;99.90;;;;;;5064713;28;20024;-54
2023/12/19 07:28:51;;;;;;;390.52;186.02;;;1.80;99.90;;;;;;5060240;28;20531;-54
2023/12/19 07:31:21;;;;;;;277.10;133.63;;;2.60;99.90;;;;;;5065761;28;20661;-54
2023/12/19 07:33:47;;;;;;;272.77;128.27;;;3.70;99.90;;;;;;5070901;27;20040;-55
2023/12/19 07:36:12;;;;;;;281.77;140.45;;;4.90;99.90;;;;;;5064337;28;20039;-55
2023/12/19 07:38:38;;;;;;;299.80;148.27;;;5.70;94.40;;;;;;5067644;28;20028;-55
2023/12/19 07:41:08;;;;;;;324.65;152.88;;;5.90;93.20;;;;;;5074949;28;20127;-55
2023/12/19 07:43:35;;;;;;;317.00;153.10;;;6.30;90.40;;;;;;5074711;28;20187;-55
2023/12/19 07:46:03;;;;;;;290.42;140.70;;;6.60;88.60;;;;;;5074149;28;20309;-55
2023/12/19 07:48:29;;;;;;;288.08;140.43;;;7.40;85.90;;;;;;5095253;28;20032;-55
2023/12/19 07:50:55;;;;;;;320.83;159.68;;;7.90;81.10;;;;;;5088741;28;20465;-55
2023/12/19 07:53:20;;;;;;;322.52;162.43;;;8.40;74.70;;;;;;5075039;28;20433;-55
2023/12/19 07:55:46;;;;;;;326.83;163.30;;;8.40;74.70;;;;;;5074971;28;20033;-55
2023/12/19 07:58:12;;;;;;;319.13;156.55;;;8.70;73.00;;;;;;5075008;28;20369;-55
2023/12/19 08:00:38;;;;;;;303.80;154.57;;;8.50;73.60;;;;;;5073719;28;20178;-55
2023/12/19 08:03:05;;;;;;;288.52;153.65;;;8.80;70.80;;;;;;5075229;28;20060;-55
2023/12/19 08:05:31;;;;;;;306.58;159.27;;;9.60;67.70;;;;;;5075036;28;20037;-56
2023/12/19 08:07:57;;;;;;;316.60;164.95;;;10.10;66.10;;;;;;5073648;28;20047;-55
2023/12/19 08:10:23;;;;;;;328.70;173.23;;;10.90;60.90;;;;;;5076484;28;20025;-56
2023/12/19 08:12:49;;;;;;;363.88;194.43;;;11.50;58.70;;;;;;5097926;28;20035;-56
2023/12/19 08:15:15;;;;;;;340.83;175.75;;;10.70;57.90;;;;;;5097665;28;20567;-56
2023/12/19 08:17:41;;;;;;;338.40;180.40;;;10.40;60.20;;;;;;5075776;27;20073;-56
2023/12/19 08:20:10;;;;;;;328.38;170.02;;;10.40;58.60;;;;;;5077666;28;20044;-56
2023/12/19 08:22:36;;;;;;;304.52;160.48;;;10.80;59.00;;;;;;5078399;28;20028;-56
2023/12/19 08:25:03;;;;;;;300.23;157.40;;;10.80;59.80;;;;;;5094918;28;20028;-56
2023/12/19 08:27:34;;;;;;;295.23;153.52;;;12.10;56.90;;;;;;5081237;28;20062;-56
2023/12/19 08:30:03;;;;;;;292.92;155.77;;;12.30;55.30;;;;;;5077343;28;20050;-56
2023/12/19 08:32:29;;;;;;;305.60;161.85;;;12.30;55.50;;;;;;5075333;28;20393;-55
2023/12/19 08:34:58;;;;;;;309.23;161.85;;;12.20;54.50;;;;;;5077770;28;20266;-56
2023/12/19 08:37:25;;;;;;;288.75;151.65;;;11.80;56.30;;;;;;5077938;28;20029;-56
2023/12/19 08:39:56;;;;;;;283.25;152.57;;;12.50;55.80;;;;;;5077662;28;20044;-56
2023/12/19 08:42:23;;;;;;;278.65;151.63;;;13.00;52.30;;;;;;5076929;28;20440;-56
2023/12/19 08:44:50;;;;;;;244.68;137.38;;;12.50;52.70;;;;;;5078002;28;20061;-56
2023/12/19 08:47:17;;;;;;;250.38;137.30;;;12.50;53.00;;;;;;5077822;28;20035;-56
2023/12/19 08:49:43;;;;;;;232.98;139.15;;;12.90;53.70;;;;;;5077422;28;20039;-56
2023/12/19 08:52:10;;;;;;;267.10;146.02;;;12.20;54.30;;;;;;5077162;28;20510;-56
2023/12/19 08:54:36;;;;;;;272.73;155.65;;;14.00;50.90;;;;;;5077600;28;20104;-56
2023/12/19 08:57:02;;;;;;;282.73;145.93;;;13.40;51.40;;;;;;5077932;28;20020;-56
2023/12/19 08:59:28;;;;;;;276.73;142.07;;;13.70;50.60;;;;;;5077344;28;20048;-56
2023/12/19 09:01:55;;;;;;;273.33;139.88;;;13.60;50.30;;;;;;5077473;28;20393;-56
2023/12/19 09:04:21;;;;;;;289.88;141.95;;;14.10;49.60;;;;;;5078103;28;20050;-56
2023/12/19 09:06:50;;;;;;;287.48;143.57;;;14.30;49.00;;;;;;5077844;28;20125;-56
2023/12/19 09:09:16;;;;;;;293.98;147.43;;;14.30;46.00;;;;;;5077998;28;20025;-56
2023/12/19 09:11:42;;;;;;;323.75;155.27;;;14.10;46.30;;;;;;5078115;28;20512;-56
2023/12/19 09:14:12;;;;;;;286.17;146.18;;;13.50;49.40;;;;;;5077633;28;20036;-56
2023/12/19 09:16:38;;;;;;;273.00;137.02;;;13.30;50.40;;;;;;5077820;28;20028;-56
2023/12/19 09:19:04;;;;;;;263.65;133.15;;;14.10;47.20;;;;;;5078002;28;20043;-56
2023/12/19 09:21:31;;;;;;;229.52;122.32;;;14.40;48.90;;;;;;5077769;28;20035;-56
2023/12/19 09:23:57;;;;;;;247.48;126.55;;;14.30;47.50;;;;;;5077409;28;20489;-56
2023/12/19 09:26:23;;;;;;;192.98;107.13;;;14.60;46.80;;;;;;5077464;28;20037;-56
2023/12/19 09:28:49;;;;;;;227.85;112.20;;;14.20;47.40;;;;;;5077941;28;20039;-56
2023/12/19 09:31:14;;;;;;;201.70;106.38;;;15.20;47.30;;;;;;5075950;28;20041;-56
2023/12/19 09:33:40;;;;;;;200.68;104.07;;;14.70;45.80;;;;;;5077094;28;20078;-56
2023/12/19 09:36:08;;;;;;;196.55;97.25;;;14.90;46.80;;;;;;5076703;28;20021;-56
2023/12/19 09:38:37;;;;;;;211.13;101.43;;;15.00;47.60;;;;;;5076341;28;20466;-56
2023/12/19 09:41:04;;;;;;;144.18;82.90;;;16.10;44.60;;;;;;5076260;28;20028;-56
2023/12/19 09:43:33;;;;;;;151.75;89.13;;;16.10;43.10;;;;;;5076683;28;20033;-56
2023/12/19 09:46:03;;;;;;;148.10;83.45;;;15.30;45.90;;;;;;5074629;28;20020;-56
2023/12/19 09:48:33;;;;;;;135.70;72.40;;;15.50;45.50;;;;;;5076571;28;20074;-56
2023/12/19 09:51:08;;;;;;;112.07;62.00;;;15.90;44.10;;;;;;5077116;28;20056;-56
2023/12/19 09:53:35;;;;;;;123.35;64.50;;;16.50;42.80;;;;;;5076255;28;20069;-56
2023/12/19 09:56:01;;;;;;;119.13;58.58;;;16.60;42.90;;;;;;5074947;28;20069;-56
2023/12/19 09:58:31;;;;;;;140.77;75.57;;;16.30;43.10;;;;;;5075903;27;20032;-56
2023/12/19 10:00:58;;;;;;;132.10;76.93;;;16.70;41.60;;;;;;5076693;28;20032;-56
2023/12/19 10:03:26;;;;;;;130.07;80.28;;;16.00;43.20;;;;;;5076926;28;20032;-57
2023/12/19 10:05:53;;;;;;;159.45;87.15;;;16.10;44.30;;;;;;5076990;28;20362;-56
2023/12/19 10:08:19;;;;;;;171.95;93.65;;;15.90;44.40;;;;;;5076579;28;20413;-57
2023/12/19 10:10:50;;;;;;;161.65;90.55;;;16.30;44.70;;;;;;5076975;28;20028;-56
2023/12/19 10:13:26;;;;;;;167.88;96.20;;;16.30;44.70;;;;;;5076839;28;20039;-56
2023/12/19 10:16:00;;;;;;;156.60;95.68;;;16.80;44.70;;;;;;5076466;28;20028;-56
2023/12/19 10:18:26;;;;;;;164.07;93.88;;;16.60;43.60;;;;;;5076632;28;20037;-57
2023/12/19 10:21:13;;;;;;;189.00;98.40;;;17.20;43.80;;;;;;5075926;28;20035;-57
2023/12/19 10:23:41;;;;;;;160.02;90.80;;;17.50;42.10;;;;;;5076075;28;20028;-57
2023/12/19 10:26:08;;;;;;;200.95;103.07;;;17.70;41.50;;;;;;5074856;28;20035;-57
2023/12/19 10:28:35;;;;;;;151.05;88.50;;;17.20;43.40;;;;;;5076586;28;20553;-57
2023/12/19 10:31:14;;;;;;;152.68;86.53;;;17.10;42.10;;;;;;5076044;28;20048;-57
2023/12/19 10:33:50;;;;;;;140.07;82.28;;;16.90;43.60;;;;;;5075995;28;20025;-57
2023/12/19 10:36:23;;;;;;;150.75;89.00;;;16.80;42.60;;;;;;5075460;28;20107;-57
2023/12/19 10:38:50;;;;;;;156.73;91.97;;;17.00;43.90;;;;;;5075975;28;20081;-57
2023/12/19 10:41:24;;;;;;;153.15;91.95;;;17.00;41.80;;;;;;5076411;28;20020;-54
2023/12/19 10:43:51;;;;;;;153.10;90.90;;;17.50;42.80;;;;;;5075777;28;20036;-55
2023/12/19 10:46:19;;;;;;;160.57;92.43;;;17.50;42.40;;;;;;5075839;28;20043;-54
2023/12/19 10:48:48;;;;;;;157.95;87.82;;;18.10;40.90;;;;;;5076224;28;20109;-55
2023/12/19 10:51:27;;;;;;;164.15;92.78;;;18.30;40.00;;;;;;5075713;28;20024;-54
2023/12/19 10:54:12;;;;;;;158.57;91.03;;;18.60;40.10;;;;;;5076128;28;20033;-54
2023/12/19 10:57:02;;;;;;;170.43;94.63;;;18.40;39.30;;;;;;5075906;28;20033;-54
2023/12/19 10:59:59;;;;;;;164.07;94.95;;;18.20;39.10;;;;;;5075789;28;20035;-54
2023/12/19 11:02:47;;;;;;;187.98;97.10;;;17.30;41.70;;;;;;5076163;28;20021;-55
2023/12/19 11:05:28;;;;;;;159.65;91.57;;;17.40;40.90;;;;;;5076151;28;20016;-55
2023/12/19 11:07:58;;;;;;;166.95;92.75;;;17.70;41.80;;;;;;5068953;28;20112;-54
2023/12/19 11:10:27;;;;;;;178.40;102.57;;;17.70;40.60;;;;;;5075985;28;20021;-55
2023/12/19 11:12:53;;;;;;;173.82;103.28;;;17.90;41.50;;;;;;5068478;28;20088;-55
2023/12/19 11:15:20;;;;;;;189.75;103.65;;;18.20;40.30;;;;;;5055559;28;20435;-54
2023/12/19 11:18:00;;;;;;;173.52;99.78;;;17.50;41.20;;;;;;5055021;28;20021;-55
2023/12/19 11:20:40;;;;;;;158.88;91.43;;;18.20;39.80;;;;;;5064716;28;20095;-55
2023/12/19 11:23:31;;;;;;;162.48;89.78;;;19.00;39.00;;;;;;5075353;28;20033;-54
2023/12/19 11:26:13;;;;;;;153.07;88.78;;;19.40;38.40;;;;;;5074777;28;20356;-55
2023/12/19 11:28:40;;;;;;;159.57;89.20;;;18.20;39.10;;;;;;5075753;28;20040;-55
2023/12/19 11:31:29;;;;;;;179.38;92.03;;;19.50;39.70;;;;;;5095150;28;20038;-55
2023/12/19 11:33:55;;;;;;;164.85;92.18;;;19.50;38.50;;;;;;5095228;28;20032;-55
2023/12/19 11:36:21;;;;;;;172.57;91.97;;;20.00;36.20;;;;;;5094531;28;20103;-55
2023/12/19 11:38:49;;;;;;;156.48;92.05;;;19.60;36.20;;;;;;5092633;28;20067;-55
2023/12/19 11:41:48;;;;;;;145.38;86.72;;;19.60;36.50;;;;;;5092251;28;20036;-55
2023/12/19 11:44:33;;;;;;;157.02;92.70;;;20.80;35.50;;;;;;5025186;28;20375;-55
2023/12/19 11:47:18;;;;;;;171.93;91.75;;;19.80;35.10;;;;;;5079049;28;20028;-55
2023/12/19 11:49:45;;;;;;;157.07;87.63;;;20.00;35.20;;;;;;5079258;28;20486;-55
2023/12/19 11:52:37;;;;;;;137.77;86.05;;;19.60;36.20;;;;;;5079295;28;20403;-55
2023/12/19 11:55:05;;;;;;;185.45;93.82;;;20.30;35.10;;;;;;5078790;28;20028;-55
2023/12/19 11:57:32;;;;;;;157.73;90.13;;;19.20;36.00;;;;;;5078618;28;20082;-54
2023/12/19 12:00:00;;;;;;;186.50;104.72;;;20.20;35.60;;;;;;5078852;28;20393;-55
2023/12/19 12:02:33;;;;;;;176.82;100.25;;;19.40;36.80;;;;;;5078932;28;20078;-55
2023/12/19 12:05:12;;;;;;;168.73;93.35;;;20.00;35.60;;;;;;5091612;28;20456;-55
2023/12/19 12:07:46;;;;;;;175.95;92.32;;;20.10;36.10;;;;;;5099034;28;20039;-55
2023/12/19 12:10:18;;;;;;;175.85;91.30;;;20.90;34.30;;;;;;5092199;28;20035;-55
2023/12/19 12:12:44;;;;;;;158.95;87.60;;;20.70;34.30;;;;;;5099107;28;20035;-55
2023/12/19 12:15:21;;;;;;;152.13;86.90;;;20.80;34.10;;;;;;5099647;28;20103;-55